sensor_id;sensor_type;location;lat;lon;timestamp;pressure;altitude;pressure_sealevel;temperature;humidity
74334;BME280;62753;40.394;-80.022;2023-04-25T00:02:10;97807.54;;;11.53;33.62
74334;BME280;62753;40.394;-80.022;2023-04-25T00:04:35;97807.88;;;11.56;33.60
74334;BME280;62753;40.394;-80.022;2023-04-25T00:07:01;97807.93;;;12.24;32.41
74334;BME280;62753;40.394;-80.022;2023-04-25T00:09:27;97801.22;;;11.48;32.68
74334;BME280;62753;40.394;-80.022;2023-04-25T00:11:52;97802.90;;;11.50;33.58
74334;BME280;62753;40.394;-80.022;2023-04-25T00:14:17;97806.47;;;11.42;33.70
74334;BME280;62753;40.394;-80.022;2023-04-25T00:16:42;97802.82;;;11.62;33.45
74334;BME280;62753;40.394;-80.022;2023-04-25T00:19:08;97810.12;;;11.75;33.73
74334;BME280;62753;40.394;-80.022;2023-04-25T00:21:33;97807.99;;;11.36;33.22
74334;BME280;62753;40.394;-80.022;2023-04-25T00:23:59;97807.12;;;11.76;33.23
74334;BME280;62753;40.394;-80.022;2023-04-25T00:26:24;97816.04;;;11.59;33.62
74334;BME280;62753;40.394;-80.022;2023-04-25T00:28:49;97818.46;;;11.70;33.72
74334;BME280;62753;40.394;-80.022;2023-04-25T00:31:15;97813.26;;;11.81;32.98
74334;BME280;62753;40.394;-80.022;2023-04-25T00:33:40;97819.65;;;11.71;33.27
74334;BME280;62753;40.394;-80.022;2023-04-25T00:36:07;97818.84;;;11.77;33.02
74334;BME280;62753;40.394;-80.022;2023-04-25T00:38:31;97815.85;;;11.17;33.61
74334;BME280;62753;40.394;-80.022;2023-04-25T00:40:57;97813.36;;;11.50;33.80
74334;BME280;62753;40.394;-80.022;2023-04-25T00:43:22;97812.72;;;11.26;33.93
74334;BME280;62753;40.394;-80.022;2023-04-25T00:45:48;97815.69;;;10.74;34.98
74334;BME280;62753;40.394;-80.022;2023-04-25T00:48:14;97819.12;;;10.78;34.89
74334;BME280;62753;40.394;-80.022;2023-04-25T00:50:39;97813.14;;;11.26;34.57
74334;BME280;62753;40.394;-80.022;2023-04-25T00:53:04;97818.03;;;11.02;34.89
74334;BME280;62753;40.394;-80.022;2023-04-25T00:55:30;97820.99;;;10.96;35.11
74334;BME280;62753;40.394;-80.022;2023-04-25T00:57:55;97824.73;;;10.65;35.25
74334;BME280;62753;40.394;-80.022;2023-04-25T01:00:21;97827.31;;;11.21;34.91
74334;BME280;62753;40.394;-80.022;2023-04-25T01:02:46;97827.95;;;10.84;34.82
74334;BME280;62753;40.394;-80.022;2023-04-25T01:05:11;97833.81;;;11.35;34.57
74334;BME280;62753;40.394;-80.022;2023-04-25T01:07:37;97839.06;;;11.06;35.27
74334;BME280;62753;40.394;-80.022;2023-04-25T01:10:03;97839.63;;;10.40;36.94
74334;BME280;62753;40.394;-80.022;2023-04-25T01:12:28;97842.11;;;10.55;37.64
74334;BME280;62753;40.394;-80.022;2023-04-25T01:14:53;97845.98;;;10.47;37.39
74334;BME280;62753;40.394;-80.022;2023-04-25T01:17:19;97845.16;;;10.20;37.04
74334;BME280;62753;40.394;-80.022;2023-04-25T01:19:45;97843.62;;;10.53;37.20
74334;BME280;62753;40.394;-80.022;2023-04-25T01:22:10;97842.81;;;10.76;36.43
74334;BME280;62753;40.394;-80.022;2023-04-25T01:24:36;97844.13;;;10.60;36.50
74334;BME280;62753;40.394;-80.022;2023-04-25T01:27:02;97845.29;;;10.39;37.18
74334;BME280;62753;40.394;-80.022;2023-04-25T01:29:28;97849.52;;;10.97;36.39
74334;BME280;62753;40.394;-80.022;2023-04-25T01:31:52;97849.46;;;10.98;35.80
74334;BME280;62753;40.394;-80.022;2023-04-25T01:34:17;97844.22;;;10.38;36.43
74334;BME280;62753;40.394;-80.022;2023-04-25T01:36:43;97844.97;;;10.39;36.19
74334;BME280;62753;40.394;-80.022;2023-04-25T01:39:09;97844.53;;;10.45;35.79
74334;BME280;62753;40.394;-80.022;2023-04-25T01:41:34;97846.25;;;10.55;35.71
74334;BME280;62753;40.394;-80.022;2023-04-25T01:44:00;97849.90;;;10.75;35.15
74334;BME280;62753;40.394;-80.022;2023-04-25T01:46:26;97847.06;;;10.80;34.80
74334;BME280;62753;40.394;-80.022;2023-04-25T01:48:51;97847.79;;;10.61;35.08
74334;BME280;62753;40.394;-80.022;2023-04-25T01:51:16;97849.19;;;10.74;34.89
74334;BME280;62753;40.394;-80.022;2023-04-25T01:53:43;97851.38;;;10.59;34.81
74334;BME280;62753;40.394;-80.022;2023-04-25T01:56:07;97856.95;;;10.66;34.27
74334;BME280;62753;40.394;-80.022;2023-04-25T01:58:33;97858.79;;;11.55;34.01
74334;BME280;62753;40.394;-80.022;2023-04-25T02:00:58;97861.91;;;11.50;33.55
74334;BME280;62753;40.394;-80.022;2023-04-25T02:03:24;97860.72;;;11.30;33.62
74334;BME280;62753;40.394;-80.022;2023-04-25T02:05:49;97866.20;;;11.08;33.90
74334;BME280;62753;40.394;-80.022;2023-04-25T02:08:17;97861.59;;;10.57;34.17
74334;BME280;62753;40.394;-80.022;2023-04-25T02:10:40;97863.73;;;10.93;33.66
74334;BME280;62753;40.394;-80.022;2023-04-25T02:13:06;97860.04;;;11.07;34.26
74334;BME280;62753;40.394;-80.022;2023-04-25T02:15:31;97860.56;;;11.31;33.42
74334;BME280;62753;40.394;-80.022;2023-04-25T02:17:57;97857.03;;;11.34;33.52
74334;BME280;62753;40.394;-80.022;2023-04-25T02:20:24;97856.39;;;11.19;33.96
74334;BME280;62753;40.394;-80.022;2023-04-25T02:22:48;97854.68;;;11.39;33.45
74334;BME280;62753;40.394;-80.022;2023-04-25T02:25:14;97855.17;;;10.92;33.67
74334;BME280;62753;40.394;-80.022;2023-04-25T02:27:39;97856.14;;;11.12;34.02
74334;BME280;62753;40.394;-80.022;2023-04-25T02:30:05;97854.75;;;11.16;33.22
74334;BME280;62753;40.394;-80.022;2023-04-25T02:32:30;97854.83;;;10.78;33.74
74334;BME280;62753;40.394;-80.022;2023-04-25T02:34:55;97853.25;;;11.37;33.56
74334;BME280;62753;40.394;-80.022;2023-04-25T02:37:21;97852.43;;;11.38;33.70
74334;BME280;62753;40.394;-80.022;2023-04-25T02:39:46;97852.41;;;11.25;33.76
74334;BME280;62753;40.394;-80.022;2023-04-25T02:42:11;97855.61;;;11.72;33.33
74334;BME280;62753;40.394;-80.022;2023-04-25T02:44:37;97856.21;;;11.21;33.43
74334;BME280;62753;40.394;-80.022;2023-04-25T02:47:02;97858.79;;;10.92;33.56
74334;BME280;62753;40.394;-80.022;2023-04-25T02:49:28;97862.60;;;10.76;33.53
74334;BME280;62753;40.394;-80.022;2023-04-25T02:51:54;97861.01;;;11.04;33.59
74334;BME280;62753;40.394;-80.022;2023-04-25T02:54:19;97857.37;;;10.87;33.80
74334;BME280;62753;40.394;-80.022;2023-04-25T02:56:44;97851.81;;;10.79;33.45
74334;BME280;62753;40.394;-80.022;2023-04-25T02:59:09;97852.78;;;10.88;34.09
74334;BME280;62753;40.394;-80.022;2023-04-25T03:01:35;97848.81;;;10.77;33.33
74334;BME280;62753;40.394;-80.022;2023-04-25T03:04:01;97849.88;;;10.74;33.81
74334;BME280;62753;40.394;-80.022;2023-04-25T03:06:26;97848.94;;;11.01;33.25
74334;BME280;62753;40.394;-80.022;2023-04-25T03:08:52;97843.11;;;10.85;33.52
74334;BME280;62753;40.394;-80.022;2023-04-25T03:11:17;97842.48;;;10.59;33.12
74334;BME280;62753;40.394;-80.022;2023-04-25T03:13:43;97844.21;;;11.53;33.02
74334;BME280;62753;40.394;-80.022;2023-04-25T03:16:08;97842.08;;;11.65;32.53
74334;BME280;62753;40.394;-80.022;2023-04-25T03:18:33;97840.67;;;11.59;32.40
74334;BME280;62753;40.394;-80.022;2023-04-25T03:20:59;97838.06;;;11.47;32.94
74334;BME280;62753;40.394;-80.022;2023-04-25T03:23:24;97840.82;;;11.42;32.72
74334;BME280;62753;40.394;-80.022;2023-04-25T03:25:51;97841.00;;;11.36;33.09
74334;BME280;62753;40.394;-80.022;2023-04-25T03:28:16;97841.18;;;11.31;33.12
74334;BME280;62753;40.394;-80.022;2023-04-25T03:30:41;97840.81;;;11.17;33.35
74334;BME280;62753;40.394;-80.022;2023-04-25T03:33:07;97842.65;;;10.91;33.66
74334;BME280;62753;40.394;-80.022;2023-04-25T03:35:32;97839.55;;;11.38;33.94
74334;BME280;62753;40.394;-80.022;2023-04-25T03:37:58;97832.81;;;10.56;34.35
74334;BME280;62753;40.394;-80.022;2023-04-25T03:40:23;97829.67;;;10.94;34.00
74334;BME280;62753;40.394;-80.022;2023-04-25T03:42:49;97826.32;;;10.96;33.91
74334;BME280;62753;40.394;-80.022;2023-04-25T03:45:15;97821.14;;;10.07;34.92
74334;BME280;62753;40.394;-80.022;2023-04-25T03:47:40;97822.51;;;10.26;35.17
74334;BME280;62753;40.394;-80.022;2023-04-25T03:50:06;97821.89;;;10.37;34.57
74334;BME280;62753;40.394;-80.022;2023-04-25T03:52:31;97820.06;;;10.31;34.80
74334;BME280;62753;40.394;-80.022;2023-04-25T03:54:56;97823.26;;;10.35;34.56
74334;BME280;62753;40.394;-80.022;2023-04-25T03:57:22;97821.30;;;10.08;34.45
74334;BME280;62753;40.394;-80.022;2023-04-25T03:59:47;97816.47;;;10.04;34.64
74334;BME280;62753;40.394;-80.022;2023-04-25T04:02:13;97812.45;;;10.25;34.30
74334;BME280;62753;40.394;-80.022;2023-04-25T04:04:38;97810.61;;;10.24;34.44
74334;BME280;62753;40.394;-80.022;2023-04-25T04:07:04;97810.75;;;10.35;33.98
74334;BME280;62753;40.394;-80.022;2023-04-25T04:09:30;97812.54;;;9.66;34.73
74334;BME280;62753;40.394;-80.022;2023-04-25T04:11:55;97816.93;;;9.62;34.58
74334;BME280;62753;40.394;-80.022;2023-04-25T04:14:21;97817.49;;;9.84;34.89
74334;BME280;62753;40.394;-80.022;2023-04-25T04:16:46;97819.54;;;9.92;35.14
74334;BME280;62753;40.394;-80.022;2023-04-25T04:19:12;97819.82;;;9.56;34.67
74334;BME280;62753;40.394;-80.022;2023-04-25T04:21:37;97819.15;;;10.03;34.63
74334;BME280;62753;40.394;-80.022;2023-04-25T04:24:03;97823.57;;;9.72;34.53
74334;BME280;62753;40.394;-80.022;2023-04-25T04:26:28;97824.22;;;9.96;34.53
74334;BME280;62753;40.394;-80.022;2023-04-25T04:28:53;97827.14;;;9.72;34.60
74334;BME280;62753;40.394;-80.022;2023-04-25T04:31:19;97828.63;;;9.51;34.93
74334;BME280;62753;40.394;-80.022;2023-04-25T04:33:44;97827.07;;;9.81;34.62
74334;BME280;62753;40.394;-80.022;2023-04-25T04:36:09;97827.78;;;9.59;34.85
74334;BME280;62753;40.394;-80.022;2023-04-25T04:38:35;97830.48;;;9.73;35.07
74334;BME280;62753;40.394;-80.022;2023-04-25T04:41:00;97830.26;;;9.76;34.98
74334;BME280;62753;40.394;-80.022;2023-04-25T04:43:26;97831.71;;;9.48;34.96
74334;BME280;62753;40.394;-80.022;2023-04-25T04:45:51;97832.61;;;9.39;35.33
74334;BME280;62753;40.394;-80.022;2023-04-25T04:48:17;97830.12;;;9.65;35.23
74334;BME280;62753;40.394;-80.022;2023-04-25T04:50:44;97828.20;;;9.57;35.04
74334;BME280;62753;40.394;-80.022;2023-04-25T04:53:08;97829.73;;;9.81;35.18
74334;BME280;62753;40.394;-80.022;2023-04-25T04:55:34;97827.21;;;9.47;34.93
74334;BME280;62753;40.394;-80.022;2023-04-25T04:58:00;97824.88;;;9.39;35.50
74334;BME280;62753;40.394;-80.022;2023-04-25T05:00:25;97825.33;;;9.17;35.27
74334;BME280;62753;40.394;-80.022;2023-04-25T05:02:50;97827.60;;;10.07;34.90
74334;BME280;62753;40.394;-80.022;2023-04-25T05:05:16;97826.24;;;9.56;35.31
74334;BME280;62753;40.394;-80.022;2023-04-25T05:07:42;97830.28;;;9.85;35.06
74334;BME280;62753;40.394;-80.022;2023-04-25T05:10:08;97829.89;;;9.41;35.21
74334;BME280;62753;40.394;-80.022;2023-04-25T05:12:32;97831.05;;;9.83;34.88
74334;BME280;62753;40.394;-80.022;2023-04-25T05:14:57;97833.77;;;9.44;35.62
74334;BME280;62753;40.394;-80.022;2023-04-25T05:17:23;97834.88;;;10.02;34.03
74334;BME280;62753;40.394;-80.022;2023-04-25T05:19:48;97835.30;;;9.95;34.21
74334;BME280;62753;40.394;-80.022;2023-04-25T05:22:14;97836.25;;;9.64;34.34
74334;BME280;62753;40.394;-80.022;2023-04-25T05:24:39;97836.67;;;9.53;34.60
74334;BME280;62753;40.394;-80.022;2023-04-25T05:27:05;97837.07;;;9.45;34.57
74334;BME280;62753;40.394;-80.022;2023-04-25T05:29:30;97836.82;;;9.61;34.06
74334;BME280;62753;40.394;-80.022;2023-04-25T05:31:56;97837.02;;;9.72;34.44
74334;BME280;62753;40.394;-80.022;2023-04-25T05:34:21;97833.94;;;9.44;34.45
74334;BME280;62753;40.394;-80.022;2023-04-25T05:36:47;97830.28;;;9.36;34.88
74334;BME280;62753;40.394;-80.022;2023-04-25T05:39:13;97833.39;;;9.95;34.41
74334;BME280;62753;40.394;-80.022;2023-04-25T05:41:38;97835.64;;;10.02;34.12
74334;BME280;62753;40.394;-80.022;2023-04-25T05:44:04;97832.97;;;9.83;33.84
74334;BME280;62753;40.394;-80.022;2023-04-25T05:46:29;97832.81;;;10.45;33.51
74334;BME280;62753;40.394;-80.022;2023-04-25T05:48:55;97832.40;;;10.11;34.00
74334;BME280;62753;40.394;-80.022;2023-04-25T05:51:20;97828.85;;;9.71;34.30
74334;BME280;62753;40.394;-80.022;2023-04-25T05:53:46;97827.07;;;9.39;34.61
74334;BME280;62753;40.394;-80.022;2023-04-25T05:56:12;97821.79;;;9.59;34.61
74334;BME280;62753;40.394;-80.022;2023-04-25T05:58:37;97820.70;;;9.28;34.07
74334;BME280;62753;40.394;-80.022;2023-04-25T06:01:03;97817.75;;;9.44;34.75
74334;BME280;62753;40.394;-80.022;2023-04-25T06:03:28;97818.25;;;10.22;34.03
74334;BME280;62753;40.394;-80.022;2023-04-25T06:05:53;97814.90;;;9.51;34.68
74334;BME280;62753;40.394;-80.022;2023-04-25T06:08:19;97812.68;;;9.54;34.74
74334;BME280;62753;40.394;-80.022;2023-04-25T06:10:45;97815.26;;;9.10;35.22
74334;BME280;62753;40.394;-80.022;2023-04-25T06:13:10;97814.60;;;9.16;35.04
74334;BME280;62753;40.394;-80.022;2023-04-25T06:15:35;97816.29;;;9.21;34.91
74334;BME280;62753;40.394;-80.022;2023-04-25T06:18:01;97814.67;;;8.80;35.38
74334;BME280;62753;40.394;-80.022;2023-04-25T06:20:26;97813.66;;;8.74;35.82
74334;BME280;62753;40.394;-80.022;2023-04-25T06:22:51;97811.83;;;9.46;34.87
74334;BME280;62753;40.394;-80.022;2023-04-25T06:25:17;97815.11;;;8.70;35.05
74334;BME280;62753;40.394;-80.022;2023-04-25T06:27:42;97816.89;;;9.24;34.94
74334;BME280;62753;40.394;-80.022;2023-04-25T06:30:09;97814.14;;;8.90;35.29
74334;BME280;62753;40.394;-80.022;2023-04-25T06:32:33;97816.43;;;8.82;35.43
74334;BME280;62753;40.394;-80.022;2023-04-25T06:34:58;97819.21;;;8.69;35.49
74334;BME280;62753;40.394;-80.022;2023-04-25T06:37:24;97818.00;;;8.92;35.55
74334;BME280;62753;40.394;-80.022;2023-04-25T06:39:48;97820.02;;;9.08;34.95
74334;BME280;62753;40.394;-80.022;2023-04-25T06:42:14;97817.32;;;8.96;35.25
74334;BME280;62753;40.394;-80.022;2023-04-25T06:44:39;97816.50;;;9.32;34.77
74334;BME280;62753;40.394;-80.022;2023-04-25T06:47:05;97819.36;;;9.32;34.87
74334;BME280;62753;40.394;-80.022;2023-04-25T06:49:30;97818.25;;;8.65;34.97
74334;BME280;62753;40.394;-80.022;2023-04-25T06:51:56;97820.15;;;9.28;34.89
74334;BME280;62753;40.394;-80.022;2023-04-25T06:54:22;97819.78;;;8.88;35.28
74334;BME280;62753;40.394;-80.022;2023-04-25T06:56:47;97820.03;;;8.87;34.97
74334;BME280;62753;40.394;-80.022;2023-04-25T06:59:13;97820.25;;;8.87;35.04
74334;BME280;62753;40.394;-80.022;2023-04-25T07:01:37;97818.34;;;8.87;35.11
74334;BME280;62753;40.394;-80.022;2023-04-25T07:04:03;97819.07;;;9.13;35.33
74334;BME280;62753;40.394;-80.022;2023-04-25T07:06:28;97819.37;;;9.98;34.52
74334;BME280;62753;40.394;-80.022;2023-04-25T07:08:54;97823.49;;;9.47;34.61
74334;BME280;62753;40.394;-80.022;2023-04-25T07:11:19;97823.18;;;8.67;35.34
74334;BME280;62753;40.394;-80.022;2023-04-25T07:13:45;97826.90;;;9.72;34.63
74334;BME280;62753;40.394;-80.022;2023-04-25T07:16:11;97827.74;;;9.22;34.72
74334;BME280;62753;40.394;-80.022;2023-04-25T07:18:37;97828.32;;;9.54;34.27
74334;BME280;62753;40.394;-80.022;2023-04-25T07:21:02;97831.20;;;10.28;33.23
74334;BME280;62753;40.394;-80.022;2023-04-25T07:23:27;97832.66;;;10.06;33.49
74334;BME280;62753;40.394;-80.022;2023-04-25T07:25:53;97830.49;;;9.61;34.22
74334;BME280;62753;40.394;-80.022;2023-04-25T07:28:18;97833.01;;;9.58;33.90
74334;BME280;62753;40.394;-80.022;2023-04-25T07:30:44;97831.60;;;9.66;34.02
74334;BME280;62753;40.394;-80.022;2023-04-25T07:33:09;97838.42;;;9.39;34.35
74334;BME280;62753;40.394;-80.022;2023-04-25T07:35:35;97835.20;;;9.27;34.70
74334;BME280;62753;40.394;-80.022;2023-04-25T07:38:01;97836.39;;;8.51;35.98
74334;BME280;62753;40.394;-80.022;2023-04-25T07:40:25;97835.52;;;8.26;37.23
74334;BME280;62753;40.394;-80.022;2023-04-25T07:42:50;97838.51;;;7.11;39.06
74334;BME280;62753;40.394;-80.022;2023-04-25T07:45:15;97834.18;;;7.77;38.13
74334;BME280;62753;40.394;-80.022;2023-04-25T07:47:40;97834.37;;;8.30;37.13
74334;BME280;62753;40.394;-80.022;2023-04-25T07:50:06;97837.10;;;8.33;36.53
74334;BME280;62753;40.394;-80.022;2023-04-25T07:52:31;97838.47;;;8.47;36.37
74334;BME280;62753;40.394;-80.022;2023-04-25T07:54:56;97843.32;;;7.99;37.03
74334;BME280;62753;40.394;-80.022;2023-04-25T07:57:21;97844.19;;;8.53;36.63
74334;BME280;62753;40.394;-80.022;2023-04-25T07:59:47;97850.85;;;8.49;36.25
74334;BME280;62753;40.394;-80.022;2023-04-25T08:02:12;97853.18;;;8.42;35.93
74334;BME280;62753;40.394;-80.022;2023-04-25T08:04:37;97852.59;;;8.26;36.42
74334;BME280;62753;40.394;-80.022;2023-04-25T08:07:02;97852.55;;;8.43;36.51
74334;BME280;62753;40.394;-80.022;2023-04-25T08:09:28;97850.02;;;8.73;35.88
74334;BME280;62753;40.394;-80.022;2023-04-25T08:11:53;97850.27;;;8.45;36.07
74334;BME280;62753;40.394;-80.022;2023-04-25T08:14:18;97852.34;;;8.12;36.41
74334;BME280;62753;40.394;-80.022;2023-04-25T08:16:44;97853.39;;;8.75;35.86
74334;BME280;62753;40.394;-80.022;2023-04-25T08:19:10;97853.38;;;8.62;35.72
74334;BME280;62753;40.394;-80.022;2023-04-25T08:21:35;97856.38;;;8.26;36.21
74334;BME280;62753;40.394;-80.022;2023-04-25T08:24:00;97858.63;;;8.70;35.84
74334;BME280;62753;40.394;-80.022;2023-04-25T08:26:27;97859.15;;;8.48;35.87
74334;BME280;62753;40.394;-80.022;2023-04-25T08:28:51;97862.11;;;8.38;36.04
74334;BME280;62753;40.394;-80.022;2023-04-25T08:31:17;97866.41;;;8.67;36.08
74334;BME280;62753;40.394;-80.022;2023-04-25T08:33:43;97868.58;;;8.77;36.14
74334;BME280;62753;40.394;-80.022;2023-04-25T08:36:07;97866.65;;;8.75;35.85
74334;BME280;62753;40.394;-80.022;2023-04-25T08:38:32;97866.00;;;8.92;35.38
74334;BME280;62753;40.394;-80.022;2023-04-25T08:41:00;97865.86;;;8.78;35.92
74334;BME280;62753;40.394;-80.022;2023-04-25T08:43:23;97867.42;;;9.09;35.80
74334;BME280;62753;40.394;-80.022;2023-04-25T08:45:48;97867.57;;;8.43;36.26
74334;BME280;62753;40.394;-80.022;2023-04-25T08:48:15;97868.15;;;8.76;35.69
74334;BME280;62753;40.394;-80.022;2023-04-25T08:50:40;97870.84;;;8.74;35.40
74334;BME280;62753;40.394;-80.022;2023-04-25T08:53:04;97870.44;;;8.76;35.81
74334;BME280;62753;40.394;-80.022;2023-04-25T08:55:30;97870.65;;;8.38;36.15
74334;BME280;62753;40.394;-80.022;2023-04-25T08:57:55;97870.32;;;8.56;35.88
74334;BME280;62753;40.394;-80.022;2023-04-25T09:00:20;97872.02;;;8.51;36.25
74334;BME280;62753;40.394;-80.022;2023-04-25T09:02:47;97873.05;;;8.78;35.46
74334;BME280;62753;40.394;-80.022;2023-04-25T09:05:13;97872.40;;;8.63;36.13
74334;BME280;62753;40.394;-80.022;2023-04-25T09:07:36;97867.11;;;7.97;37.50
74334;BME280;62753;40.394;-80.022;2023-04-25T09:10:02;97866.02;;;7.98;37.27
74334;BME280;62753;40.394;-80.022;2023-04-25T09:12:27;97868.71;;;8.32;36.81
74334;BME280;62753;40.394;-80.022;2023-04-25T09:15:03;97870.96;;;8.61;36.59
74334;BME280;62753;40.394;-80.022;2023-04-25T09:17:18;97870.88;;;7.89;37.03
74334;BME280;62753;40.394;-80.022;2023-04-25T09:19:44;97871.20;;;8.10;37.19
74334;BME280;62753;40.394;-80.022;2023-04-25T09:22:09;97868.34;;;8.27;36.81
74334;BME280;62753;40.394;-80.022;2023-04-25T09:24:36;97866.84;;;8.31;36.33
74334;BME280;62753;40.394;-80.022;2023-04-25T09:27:00;97865.66;;;8.59;36.23
74334;BME280;62753;40.394;-80.022;2023-04-25T09:29:30;97867.09;;;8.57;36.45
74334;BME280;62753;40.394;-80.022;2023-04-25T09:31:50;97867.58;;;8.38;36.36
74334;BME280;62753;40.394;-80.022;2023-04-25T09:34:16;97865.45;;;8.43;36.13
74334;BME280;62753;40.394;-80.022;2023-04-25T09:36:41;97863.45;;;8.60;36.41
74334;BME280;62753;40.394;-80.022;2023-04-25T09:39:12;97863.63;;;8.24;36.45
74334;BME280;62753;40.394;-80.022;2023-04-25T09:41:37;97864.46;;;8.07;36.70
74334;BME280;62753;40.394;-80.022;2023-04-25T09:43:58;97863.61;;;8.51;35.77
74334;BME280;62753;40.394;-80.022;2023-04-25T09:46:24;97865.47;;;8.69;35.94
74334;BME280;62753;40.394;-80.022;2023-04-25T09:48:49;97861.46;;;8.43;35.92
74334;BME280;62753;40.394;-80.022;2023-04-25T09:51:20;97863.25;;;8.34;36.25
74334;BME280;62753;40.394;-80.022;2023-04-25T09:53:40;97862.65;;;7.88;36.63
74334;BME280;62753;40.394;-80.022;2023-04-25T09:56:06;97864.42;;;8.46;36.00
74334;BME280;62753;40.394;-80.022;2023-04-25T09:58:30;97864.37;;;8.23;36.10
74334;BME280;62753;40.394;-80.022;2023-04-25T10:00:59;97864.48;;;8.89;35.68
74334;BME280;62753;40.394;-80.022;2023-04-25T10:03:20;97860.93;;;8.03;36.57
74334;BME280;62753;40.394;-80.022;2023-04-25T10:05:47;97859.11;;;8.22;36.23
74334;BME280;62753;40.394;-80.022;2023-04-25T10:08:12;97862.61;;;8.56;35.82
74334;BME280;62753;40.394;-80.022;2023-04-25T10:10:37;97862.83;;;8.53;36.26
74334;BME280;62753;40.394;-80.022;2023-04-25T10:13:03;97866.74;;;8.83;35.87
74334;BME280;62753;40.394;-80.022;2023-04-25T10:15:28;97868.80;;;9.07;35.82
74334;BME280;62753;40.394;-80.022;2023-04-25T10:17:53;97869.59;;;8.60;36.23
74334;BME280;62753;40.394;-80.022;2023-04-25T10:20:19;97868.41;;;8.30;36.63
74334;BME280;62753;40.394;-80.022;2023-04-25T10:22:45;97867.56;;;7.86;37.17
74334;BME280;62753;40.394;-80.022;2023-04-25T10:25:10;97867.06;;;8.46;36.59
74334;BME280;62753;40.394;-80.022;2023-04-25T10:27:35;97863.45;;;8.11;36.96
74334;BME280;62753;40.394;-80.022;2023-04-25T10:30:01;97862.23;;;8.26;36.77
74334;BME280;62753;40.394;-80.022;2023-04-25T10:32:26;97860.01;;;7.74;37.03
74334;BME280;62753;40.394;-80.022;2023-04-25T10:34:52;97859.82;;;8.11;36.85
74334;BME280;62753;40.394;-80.022;2023-04-25T10:37:19;97864.00;;;8.03;36.76
74334;BME280;62753;40.394;-80.022;2023-04-25T10:39:42;97866.16;;;8.26;36.97
74334;BME280;62753;40.394;-80.022;2023-04-25T10:42:13;97864.99;;;7.83;36.97
74334;BME280;62753;40.394;-80.022;2023-04-25T10:44:33;97868.45;;;8.20;37.00
74334;BME280;62753;40.394;-80.022;2023-04-25T10:47:00;97872.66;;;8.10;37.31
74334;BME280;62753;40.394;-80.022;2023-04-25T10:49:31;97878.43;;;8.10;36.83
74334;BME280;62753;40.394;-80.022;2023-04-25T10:51:49;97882.71;;;8.15;36.59
74334;BME280;62753;40.394;-80.022;2023-04-25T10:54:18;97885.41;;;8.29;36.84
74334;BME280;62753;40.394;-80.022;2023-04-25T10:56:42;97886.37;;;8.64;36.63
74334;BME280;62753;40.394;-80.022;2023-04-25T10:59:12;97889.70;;;8.48;36.37
74334;BME280;62753;40.394;-80.022;2023-04-25T11:01:36;97891.59;;;8.55;36.48
74334;BME280;62753;40.394;-80.022;2023-04-25T11:03:58;97892.37;;;8.64;36.38
74334;BME280;62753;40.394;-80.022;2023-04-25T11:06:26;97894.77;;;8.28;36.31
74334;BME280;62753;40.394;-80.022;2023-04-25T11:08:49;97898.72;;;8.86;35.88
74334;BME280;62753;40.394;-80.022;2023-04-25T11:11:12;97901.84;;;8.38;36.22
74334;BME280;62753;40.394;-80.022;2023-04-25T11:13:37;97907.28;;;9.16;35.74
74334;BME280;62753;40.394;-80.022;2023-04-25T11:16:03;97911.13;;;8.72;35.75
74334;BME280;62753;40.394;-80.022;2023-04-25T11:18:28;97913.83;;;8.76;36.11
74334;BME280;62753;40.394;-80.022;2023-04-25T11:20:53;97917.40;;;9.04;35.84
74334;BME280;62753;40.394;-80.022;2023-04-25T11:23:18;97917.99;;;9.42;35.39
74334;BME280;62753;40.394;-80.022;2023-04-25T11:25:44;97920.95;;;9.42;35.68
74334;BME280;62753;40.394;-80.022;2023-04-25T11:28:10;97917.01;;;9.55;34.67
74334;BME280;62753;40.394;-80.022;2023-04-25T11:30:35;97920.63;;;9.84;34.48
74334;BME280;62753;40.394;-80.022;2023-04-25T11:33:01;97923.53;;;9.54;34.94
74334;BME280;62753;40.394;-80.022;2023-04-25T11:35:26;97925.63;;;9.96;34.51
74334;BME280;62753;40.394;-80.022;2023-04-25T11:37:51;97927.47;;;10.12;33.98
74334;BME280;62753;40.394;-80.022;2023-04-25T11:40:17;97932.66;;;10.45;33.85
74334;BME280;62753;40.394;-80.022;2023-04-25T11:42:45;97935.55;;;10.45;34.68
74334;BME280;62753;40.394;-80.022;2023-04-25T11:45:08;97938.60;;;10.16;33.49
74334;BME280;62753;40.394;-80.022;2023-04-25T11:47:34;97940.46;;;10.49;33.18
74334;BME280;62753;40.394;-80.022;2023-04-25T11:49:59;97946.83;;;10.59;33.73
74334;BME280;62753;40.394;-80.022;2023-04-25T11:52:24;97948.10;;;9.92;33.42
74334;BME280;62753;40.394;-80.022;2023-04-25T11:54:50;97949.45;;;10.06;33.93
74334;BME280;62753;40.394;-80.022;2023-04-25T11:57:18;97949.18;;;10.36;33.45
74334;BME280;62753;40.394;-80.022;2023-04-25T11:59:40;97947.63;;;10.36;34.14
74334;BME280;62753;40.394;-80.022;2023-04-25T12:02:05;97947.95;;;10.54;33.41
74334;BME280;62753;40.394;-80.022;2023-04-25T12:04:31;97954.38;;;10.18;34.05
74334;BME280;62753;40.394;-80.022;2023-04-25T12:06:57;97949.30;;;10.68;33.14
74334;BME280;62753;40.394;-80.022;2023-04-25T12:09:28;97955.00;;;10.87;33.60
74334;BME280;62753;40.394;-80.022;2023-04-25T12:11:49;97950.94;;;11.04;33.04
74334;BME280;62753;40.394;-80.022;2023-04-25T12:16:43;97956.76;;;11.17;31.97
74334;BME280;62753;40.394;-80.022;2023-04-25T12:19:04;97960.92;;;11.64;32.08
74334;BME280;62753;40.394;-80.022;2023-04-25T12:21:29;97963.75;;;11.68;31.19
74334;BME280;62753;40.394;-80.022;2023-04-25T12:23:55;97965.92;;;11.43;32.19
74334;BME280;62753;40.394;-80.022;2023-04-25T12:26:20;97966.12;;;10.87;32.57
74334;BME280;62753;40.394;-80.022;2023-04-25T12:28:46;97972.74;;;11.64;32.00
74334;BME280;62753;40.394;-80.022;2023-04-25T12:31:10;97966.85;;;10.59;32.68
74334;BME280;62753;40.394;-80.022;2023-04-25T12:33:36;97969.02;;;11.09;33.49
74334;BME280;62753;40.394;-80.022;2023-04-25T12:36:03;97965.81;;;11.26;31.29
74334;BME280;62753;40.394;-80.022;2023-04-25T12:38:28;97963.96;;;11.37;32.24